Airfield :
LOGIN :

Register | Disclaimer

   EN    FR    IT 

 










Legend :    VFR   Marginal VFR   IFR   Intensive IFR   Very Intensive IFR
Visi :
Ceiling :
>= 8 km
>= 3000ft
5 to 8 km
1000 to 3000 ft
1500m to 5 km
500 to 1000 ft
800 to 1500m
200 to 500 ft
< 800m
< 200 ft
Symbols :   Thunderstorms  Fog  Heavy snow  Heavy precipitations  Wind > 20 kt
SIGMETs :     Misc.  Thunderstorms  Icing  Turbulence  Mountain Waves  Volcanic Ashes







- Airport Elevation : 80 ft
- IATA code : LPL
- Download approach charts


EGGP - Liverpool John Lennon

CURRENT METAR :
  • 160620Z 00000KT 9999 FEW024 SCT030 BKN040 18/16 Q1013

EXPIRED METARs :
  • 160550Z 00000KT 9999 FEW026 SCT034 BKN040 17/16 Q1013
  • 160520Z 29004KT 260V340 9999 FEW026 17/16 Q1013
  • 160450Z 26006KT 9999 4000W VCSH SCT024 17/16 Q1013
  • 160420Z 20006KT 170V240 9999 FEW020 18/15 Q1013
  • 160350Z 18004KT 150V210 CAVOK 18/15 Q1013

TAF TAF EGGP
Valid from the 16 at 06:00 until the 17 at 06:00 UTC


160455Z 1606/1706 26008KT 9999 SCT040
TEMPO 1606/1620 6000 RA SHRA BKN009
ATIS : +44 151 907 2000 (option 5 or ext 5150)
Met : +44 871 750 5150
No reported NOTAMs for that airfield.



MET'MAP, your aeronautical weather chart ! - Copyright ORBIFLY December 2007 - Disclaimer

ORBIFLY MET'MAP TEAM :

Programming & Development : Alexandra Zaïnal
Concept & Development : Baudouin d'Aumeries
Co-Development & Prog : Marc-Olivier Méhu
Technical & hardware support : Manuel Goepfert

Contact : metmap@orbifly.com




SOURCES & CREDITS :

   NOAA